createdAt,value
2018-05-16T00:00:08.831Z,0.00
2018-05-16T00:01:08.819Z,0.00
2018-05-16T00:02:08.825Z,0.00
2018-05-16T00:03:08.827Z,0.00
2018-05-16T00:04:08.846Z,0.00
2018-05-16T00:05:08.852Z,0.00
2018-05-16T00:06:08.841Z,0.00
2018-05-16T00:07:08.855Z,0.00
2018-05-16T00:08:08.850Z,0.00
2018-05-16T00:09:08.860Z,0.00
2018-05-16T00:10:08.860Z,0.00
2018-05-16T00:11:08.861Z,0.00
2018-05-16T00:12:08.864Z,0.00
2018-05-16T00:13:08.870Z,0.00
2018-05-16T00:14:08.874Z,0.00
2018-05-16T00:15:08.875Z,0.00
2018-05-16T00:18:14.613Z,0.00
2018-05-16T00:19:19.151Z,0.00
2018-05-16T00:22:08.949Z,0.00
2018-05-16T00:23:08.923Z,0.00
2018-05-16T00:24:14.623Z,0.00
2018-05-16T00:26:12.605Z,0.00
2018-05-16T00:27:13.617Z,0.00
2018-05-16T00:28:08.915Z,0.00
2018-05-16T00:29:08.934Z,0.00
2018-05-16T00:30:08.928Z,0.00
2018-05-16T00:32:57.128Z,0.00
2018-05-16T00:35:13.772Z,0.00
2018-05-16T00:36:13.359Z,0.00
2018-05-16T00:37:13.366Z,0.00
2018-05-16T00:38:13.357Z,0.00
2018-05-16T00:39:13.351Z,0.00
2018-05-16T00:40:13.366Z,0.00
2018-05-16T00:41:13.364Z,0.00
2018-05-16T00:42:13.363Z,0.00
2018-05-16T00:43:13.399Z,0.00
2018-05-16T00:44:13.373Z,0.00
2018-05-16T00:45:13.382Z,0.00
2018-05-16T00:46:13.385Z,0.00
2018-05-16T00:47:13.393Z,0.00
2018-05-16T00:48:13.395Z,0.00
2018-05-16T00:49:13.392Z,0.00
2018-05-16T00:50:13.392Z,0.00
2018-05-16T00:51:13.402Z,0.00
2018-05-16T00:52:13.408Z,0.00
2018-05-16T00:53:13.416Z,0.00
2018-05-16T00:54:13.416Z,0.00
2018-05-16T00:55:13.416Z,0.00
2018-05-16T00:56:13.418Z,0.00
2018-05-16T00:57:13.421Z,0.00
2018-05-16T00:58:13.432Z,0.00
2018-05-16T00:59:14.144Z,0.00
2018-05-16T01:00:13.430Z,0.00
2018-05-16T01:01:13.436Z,0.00
2018-05-16T01:02:13.435Z,0.00
2018-05-16T01:03:13.446Z,0.00
2018-05-16T01:04:13.445Z,0.00
2018-05-16T01:05:13.465Z,0.00
2018-05-16T01:06:13.449Z,0.00
2018-05-16T01:07:13.449Z,0.00
2018-05-16T01:08:13.458Z,0.00
2018-05-16T01:09:13.464Z,0.00
2018-05-16T01:10:13.462Z,0.00
2018-05-16T01:11:13.548Z,0.00
2018-05-16T01:12:13.475Z,0.00
2018-05-16T01:13:13.471Z,0.00
2018-05-16T01:14:13.478Z,0.00
2018-05-16T01:15:13.481Z,0.00
2018-05-16T01:16:13.485Z,0.00
2018-05-16T01:17:13.524Z,0.00
2018-05-16T01:18:13.494Z,0.00
2018-05-16T01:19:13.498Z,0.00
2018-05-16T01:20:13.503Z,0.00
2018-05-16T01:21:13.496Z,0.00
2018-05-16T01:22:13.499Z,0.00
2018-05-16T01:23:13.519Z,0.00
2018-05-16T01:24:13.520Z,0.00
2018-05-16T01:25:13.507Z,0.00
2018-05-16T01:26:13.512Z,0.00
2018-05-16T01:27:13.541Z,0.00
2018-05-16T01:28:13.530Z,0.00
2018-05-16T01:29:13.522Z,0.00
2018-05-16T01:30:13.552Z,0.00
2018-05-16T01:31:13.533Z,0.00
2018-05-16T01:32:13.544Z,0.00
2018-05-16T01:33:13.537Z,0.00
2018-05-16T01:34:13.534Z,0.00
2018-05-16T01:35:13.538Z,0.00
2018-05-16T01:36:13.545Z,0.00
2018-05-16T01:37:13.556Z,0.00
2018-05-16T01:38:13.552Z,0.00
2018-05-16T01:39:13.564Z,0.00
2018-05-16T01:40:14.157Z,0.00
2018-05-16T01:41:13.569Z,0.00
2018-05-16T01:42:13.565Z,0.00
2018-05-16T01:43:13.580Z,0.00
2018-05-16T01:44:13.592Z,0.00
2018-05-16T01:45:13.579Z,0.00
2018-05-16T01:46:13.578Z,0.00
2018-05-16T01:47:13.579Z,0.00
2018-05-16T01:48:13.590Z,0.00
2018-05-16T01:49:13.592Z,0.00
2018-05-16T01:50:13.598Z,0.00
2018-05-16T01:51:13.604Z,0.00
2018-05-16T01:52:13.608Z,0.00
2018-05-16T01:53:13.608Z,0.00
2018-05-16T01:54:13.598Z,0.00
2018-05-16T01:55:13.607Z,0.00
2018-05-16T01:56:13.616Z,0.00
2018-05-16T01:57:13.619Z,0.00
2018-05-16T01:58:13.619Z,0.00
2018-05-16T01:59:13.617Z,0.00
2018-05-16T02:00:13.628Z,0.00
2018-05-16T02:01:13.632Z,0.00
2018-05-16T02:02:13.631Z,0.00
2018-05-16T02:03:13.634Z,0.00
2018-05-16T02:04:13.627Z,0.00
2018-05-16T02:05:13.643Z,0.00
2018-05-16T02:06:13.639Z,0.00
2018-05-16T02:07:13.654Z,0.00
2018-05-16T02:08:13.688Z,0.00
2018-05-16T02:09:13.656Z,0.00
2018-05-16T02:10:13.657Z,0.00
2018-05-16T02:11:13.682Z,0.00
2018-05-16T02:12:13.671Z,0.00
2018-05-16T02:13:13.660Z,0.00
2018-05-16T02:14:13.665Z,0.00
2018-05-16T02:15:13.692Z,0.00
2018-05-16T02:16:13.684Z,0.00
2018-05-16T02:17:13.680Z,0.00
2018-05-16T02:18:13.682Z,0.00
2018-05-16T02:19:13.688Z,0.00
2018-05-16T02:20:13.696Z,0.00
2018-05-16T02:21:13.759Z,0.00
2018-05-16T02:22:13.694Z,0.00
2018-05-16T02:23:13.699Z,0.00
2018-05-16T02:24:13.704Z,0.00
2018-05-16T02:25:13.705Z,0.00
2018-05-16T02:26:13.712Z,0.00
2018-05-16T02:27:13.707Z,0.00
2018-05-16T02:28:13.710Z,0.00
2018-05-16T02:29:13.727Z,0.00
2018-05-16T02:30:13.723Z,0.00
2018-05-16T02:31:13.719Z,0.00
2018-05-16T02:32:13.728Z,0.00
2018-05-16T02:33:13.727Z,0.00
2018-05-16T02:34:13.740Z,0.00
2018-05-16T02:35:13.736Z,0.00
2018-05-16T02:36:13.741Z,0.00
2018-05-16T02:37:13.737Z,0.00
2018-05-16T02:38:13.735Z,0.00
2018-05-16T02:39:13.744Z,0.00
2018-05-16T02:40:13.750Z,0.00
2018-05-16T02:41:13.743Z,0.00
2018-05-16T02:42:13.762Z,0.00
2018-05-16T02:43:13.764Z,0.00
2018-05-16T02:44:13.758Z,0.00
2018-05-16T02:45:13.771Z,0.00
2018-05-16T02:46:13.768Z,0.00
2018-05-16T02:47:13.813Z,0.00
2018-05-16T02:48:13.783Z,0.00
2018-05-16T02:49:13.778Z,0.00
2018-05-16T02:50:13.787Z,0.00
2018-05-16T02:51:13.785Z,0.00
2018-05-16T02:52:13.784Z,0.00
2018-05-16T02:53:13.797Z,0.00
2018-05-16T02:54:13.794Z,0.00
2018-05-16T02:55:13.805Z,0.00
2018-05-16T02:56:13.803Z,0.00
2018-05-16T02:57:13.806Z,0.00
2018-05-16T02:58:13.809Z,0.00
2018-05-16T02:59:13.800Z,0.00
2018-05-16T03:00:13.871Z,4.00
2018-05-16T03:01:13.810Z,4.00
2018-05-16T03:02:13.951Z,4.00
2018-05-16T03:03:13.819Z,4.00
2018-05-16T03:04:13.826Z,0.00
2018-05-16T03:05:13.824Z,4.00
2018-05-16T03:06:13.836Z,4.00
2018-05-16T03:07:13.835Z,8.00
2018-05-16T03:08:13.834Z,4.00
2018-05-16T03:09:13.839Z,8.00
2018-05-16T03:10:13.858Z,4.00
2018-05-16T03:11:13.861Z,8.00
2018-05-16T03:12:13.848Z,8.00
2018-05-16T03:13:13.850Z,12.00
2018-05-16T03:14:13.849Z,12.00
2018-05-16T03:15:13.947Z,12.00
2018-05-16T03:16:13.856Z,16.00
2018-05-16T03:17:13.865Z,16.00
2018-05-16T03:18:13.864Z,20.00
2018-05-16T03:19:13.870Z,20.00
2018-05-16T03:20:13.866Z,24.00
2018-05-16T03:21:13.880Z,28.00
2018-05-16T03:27:49.683Z,52.00
2018-05-16T03:28:49.656Z,60.00
2018-05-16T03:29:49.658Z,68.00
2018-05-16T03:30:49.665Z,72.00
2018-05-16T03:31:49.671Z,80.00
2018-05-16T03:32:49.680Z,88.00
2018-05-16T03:33:49.664Z,96.00
2018-05-16T03:34:49.664Z,108.00
2018-05-16T03:35:49.679Z,116.00
2018-05-16T03:36:49.686Z,124.00
2018-05-16T03:37:49.687Z,136.00
2018-05-16T03:38:49.687Z,148.00
2018-05-16T03:39:49.680Z,160.00
2018-05-16T03:40:49.690Z,172.00
2018-05-16T03:41:49.687Z,188.00
2018-05-16T03:42:49.703Z,204.00
2018-05-16T03:43:49.705Z,216.00
2018-05-16T03:44:49.698Z,232.00
2018-05-16T03:45:50.642Z,252.00
2018-05-16T03:46:49.715Z,268.00
2018-05-16T03:47:50.643Z,288.00
2018-05-16T03:48:49.731Z,312.00
2018-05-16T03:49:49.721Z,332.00
2018-05-16T03:50:49.738Z,360.00
2018-05-16T03:51:49.722Z,380.00
2018-05-16T03:52:49.788Z,408.00
2018-05-16T03:53:49.728Z,436.00
2018-05-16T03:54:49.745Z,460.00
2018-05-16T03:55:49.749Z,484.00
2018-05-16T03:56:49.741Z,512.00
2018-05-16T03:57:49.746Z,536.00
2018-05-16T03:58:49.743Z,560.00
2018-05-16T03:59:49.751Z,588.00
2018-05-16T04:00:49.754Z,612.00
2018-05-16T04:01:49.764Z,636.00
2018-05-16T04:02:49.762Z,660.00
2018-05-16T04:03:49.756Z,688.00
2018-05-16T04:04:49.763Z,716.00
2018-05-16T04:05:49.783Z,748.00
2018-05-16T04:06:49.765Z,772.00
2018-05-16T04:07:49.776Z,796.00
2018-05-16T04:08:49.778Z,824.00
2018-05-16T04:09:49.773Z,852.00
2018-05-16T04:10:49.782Z,880.00
2018-05-16T04:11:49.781Z,908.00
2018-05-16T04:12:49.786Z,932.00
2018-05-16T04:13:49.786Z,964.00
2018-05-16T04:14:49.781Z,996.00
2018-05-16T04:15:49.802Z,1024.00
2018-05-16T04:16:49.799Z,1052.00
2018-05-16T04:17:49.801Z,1076.00
2018-05-16T04:18:50.656Z,1096.00
2018-05-16T04:19:49.811Z,1116.00
2018-05-16T04:20:49.816Z,1140.00
2018-05-16T04:21:49.813Z,1168.00
2018-05-16T04:22:49.807Z,1188.00
2018-05-16T04:23:49.821Z,1216.00
2018-05-16T04:24:49.823Z,1244.00
2018-05-16T04:25:49.830Z,1272.00
2018-05-16T04:26:49.831Z,1296.00
2018-05-16T04:27:49.842Z,1316.00
2018-05-16T04:28:49.934Z,1344.00
2018-05-16T04:29:49.836Z,1368.00
2018-05-16T04:30:49.833Z,1400.00
2018-05-16T04:31:50.661Z,1436.00
2018-05-16T04:32:49.833Z,1468.00
2018-05-16T04:33:49.852Z,1500.00
2018-05-16T04:34:49.850Z,1536.00
2018-05-16T04:35:49.848Z,1572.00
2018-05-16T04:36:49.855Z,1604.00
2018-05-16T04:37:49.851Z,1632.00
2018-05-16T04:38:49.873Z,1656.00
2018-05-16T04:39:49.855Z,1680.00
2018-05-16T04:40:49.863Z,1700.00
2018-05-16T04:41:49.886Z,1716.00
2018-05-16T04:42:49.865Z,1724.00
2018-05-16T04:43:49.886Z,1736.00
2018-05-16T04:44:49.882Z,1748.00
2018-05-16T04:45:49.883Z,1772.00
2018-05-16T04:46:49.880Z,1796.00
2018-05-16T04:47:49.889Z,1816.00
2018-05-16T04:48:49.894Z,1836.00
2018-05-16T04:49:49.894Z,1856.00
2018-05-16T04:50:49.904Z,1872.00
2018-05-16T04:51:49.897Z,1896.00
2018-05-16T04:52:49.923Z,1920.00
2018-05-16T04:53:49.893Z,1956.00
2018-05-16T04:54:49.908Z,1984.00
2018-05-16T04:55:49.913Z,2032.00
2018-05-16T04:56:49.911Z,2072.00
2018-05-16T04:57:49.910Z,2096.00
2018-05-16T04:58:49.910Z,2096.00
2018-05-16T04:59:49.925Z,2108.00
2018-05-16T05:00:49.933Z,2132.00
2018-05-16T05:01:49.929Z,2168.00
2018-05-16T05:02:49.932Z,2188.00
2018-05-16T05:03:49.928Z,2216.00
2018-05-16T05:04:49.936Z,2248.00
2018-05-16T05:05:49.931Z,2288.00
2018-05-16T05:06:49.938Z,2332.00
2018-05-16T05:07:49.936Z,2380.00
2018-05-16T05:08:49.950Z,2428.00
2018-05-16T05:09:49.947Z,2488.00
2018-05-16T05:10:49.969Z,2544.00
2018-05-16T05:11:49.966Z,2616.00
2018-05-16T05:12:49.960Z,2668.00
2018-05-16T05:13:49.963Z,2712.00
2018-05-16T05:14:49.972Z,2756.00
2018-05-16T05:15:49.972Z,2812.00
2018-05-16T05:16:49.975Z,2868.00
2018-05-16T05:17:49.976Z,2916.00
2018-05-16T05:18:50.071Z,2984.00
2018-05-16T05:19:49.984Z,3060.00
2018-05-16T05:20:49.991Z,3136.00
2018-05-16T05:21:49.993Z,3216.00
2018-05-16T05:22:50.002Z,3284.00
2018-05-16T05:23:49.997Z,3512.00
2018-05-16T05:24:49.992Z,4272.00
2018-05-16T05:25:49.999Z,5260.00
2018-05-16T05:26:50.005Z,5964.00
2018-05-16T05:27:50.004Z,6060.00
2018-05-16T05:28:50.000Z,6124.00
2018-05-16T05:29:50.013Z,6156.00
2018-05-16T05:30:50.016Z,6132.00
2018-05-16T05:31:50.014Z,6116.00
2018-05-16T05:32:50.681Z,6188.00
2018-05-16T05:33:50.027Z,6368.00
2018-05-16T05:34:50.029Z,6428.00
2018-05-16T05:35:50.037Z,6368.00
2018-05-16T05:36:50.045Z,6412.00
2018-05-16T05:37:50.062Z,6528.00
2018-05-16T05:38:50.048Z,6636.00
2018-05-16T05:39:50.048Z,6716.00
2018-05-16T05:40:50.068Z,6844.00
2018-05-16T05:41:50.069Z,7024.00
2018-05-16T05:42:50.060Z,7172.00
2018-05-16T05:43:50.064Z,7204.00
2018-05-16T05:44:50.065Z,7328.00
2018-05-16T05:45:50.070Z,7480.00
2018-05-16T05:46:50.081Z,7568.00
2018-05-16T05:47:50.078Z,7680.00
2018-05-16T05:48:50.085Z,7804.00
2018-05-16T05:49:50.098Z,7908.00
2018-05-16T05:50:50.139Z,7084.00
2018-05-16T05:51:50.107Z,6956.00
2018-05-16T05:52:50.111Z,7560.00
2018-05-16T05:53:50.117Z,8844.00
2018-05-16T05:54:50.125Z,8056.00
2018-05-16T05:55:50.129Z,8008.00
2018-05-16T05:56:50.130Z,7508.00
2018-05-16T05:57:50.138Z,6704.00
2018-05-16T05:58:50.151Z,5132.00
2018-05-16T05:59:50.156Z,8924.00
2018-05-16T06:00:50.696Z,9372.00
2018-05-16T06:01:50.177Z,7612.00
2018-05-16T06:02:50.181Z,7052.00
2018-05-16T06:03:50.178Z,7128.00
2018-05-16T06:04:50.181Z,7104.00
2018-05-16T06:05:50.185Z,7028.00
2018-05-16T06:06:50.200Z,6520.00
2018-05-16T06:07:50.213Z,6440.00
2018-05-16T06:08:50.208Z,5136.00
2018-05-16T06:09:50.207Z,5288.00
2018-05-16T06:10:50.219Z,5740.00
2018-05-16T06:11:50.224Z,6016.00
2018-05-16T06:12:50.373Z,7104.00
2018-05-16T06:13:50.228Z,8252.00
2018-05-16T06:14:50.263Z,7904.00
2018-05-16T06:15:50.250Z,8412.00
2018-05-16T06:16:50.255Z,8868.00
2018-05-16T06:17:50.280Z,8620.00
2018-05-16T06:18:50.264Z,9560.00
2018-05-16T06:19:50.325Z,11972.00
2018-05-16T06:20:50.281Z,14076.00
2018-05-16T06:21:50.268Z,10776.00
2018-05-16T06:22:50.287Z,15224.00
2018-05-16T06:23:50.294Z,14792.00
2018-05-16T06:24:50.296Z,14132.00
2018-05-16T06:25:50.302Z,13528.00
2018-05-16T06:26:50.305Z,11940.00
2018-05-16T06:27:50.738Z,9120.00
2018-05-16T06:28:50.314Z,5932.00
2018-05-16T06:29:50.320Z,8312.00
2018-05-16T06:30:50.323Z,10756.00
2018-05-16T06:31:50.354Z,11612.00
2018-05-16T06:32:50.454Z,12600.00
2018-05-16T06:33:51.234Z,10940.00
2018-05-16T06:34:50.470Z,7552.00
2018-05-16T06:35:50.357Z,7404.00
2018-05-16T06:36:50.374Z,7880.00
2018-05-16T06:37:50.409Z,7884.00
2018-05-16T06:38:50.389Z,7500.00
2018-05-16T06:39:50.396Z,7584.00
2018-05-16T06:40:50.399Z,9080.00
2018-05-16T06:41:50.404Z,11276.00
2018-05-16T06:42:50.424Z,11924.00
2018-05-16T06:43:50.417Z,11480.00
2018-05-16T06:44:50.423Z,11684.00
2018-05-16T06:45:50.724Z,11508.00
2018-05-16T06:46:50.502Z,12344.00
2018-05-16T06:47:50.452Z,13172.00
2018-05-16T06:48:50.457Z,13076.00
2018-05-16T06:49:50.503Z,12940.00
2018-05-16T06:50:51.344Z,12048.00
2018-05-16T06:51:50.492Z,12036.00
2018-05-16T06:52:50.521Z,9840.00
2018-05-16T06:53:50.499Z,7400.00
2018-05-16T06:54:50.537Z,11320.00
2018-05-16T06:55:50.523Z,11368.00
2018-05-16T06:56:50.527Z,11180.00
2018-05-16T06:57:50.559Z,8404.00
2018-05-16T06:58:51.247Z,6876.00
2018-05-16T06:59:50.531Z,5352.00
2018-05-16T07:00:50.565Z,4184.00
2018-05-16T07:01:50.618Z,3656.00
2018-05-16T07:02:50.607Z,3196.00
2018-05-16T07:03:50.596Z,2752.00
2018-05-16T07:04:50.583Z,2404.00
2018-05-16T07:05:51.232Z,2132.00
2018-05-16T07:06:50.591Z,1892.00
2018-05-16T07:07:50.620Z,1760.00
2018-05-16T07:08:50.614Z,1728.00
2018-05-16T07:09:50.618Z,1840.00
2018-05-16T07:10:50.625Z,2032.00
2018-05-16T07:11:50.688Z,2420.00
2018-05-16T07:12:50.688Z,2744.00
2018-05-16T07:13:50.652Z,3080.00
2018-05-16T07:14:50.657Z,3524.00
2018-05-16T07:15:50.693Z,3800.00
2018-05-16T07:16:50.665Z,3816.00
2018-05-16T07:17:50.701Z,3792.00
2018-05-16T07:18:50.679Z,4028.00
2018-05-16T07:19:50.670Z,4380.00
2018-05-16T07:20:50.708Z,4124.00
2018-05-16T07:21:51.235Z,3640.00
2018-05-16T07:22:50.748Z,3348.00
2018-05-16T07:23:50.717Z,3232.00
2018-05-16T07:24:51.264Z,3216.00
2018-05-16T07:25:50.711Z,3040.00
2018-05-16T07:26:50.719Z,2900.00
2018-05-16T07:27:51.317Z,3404.00
2018-05-16T07:28:50.725Z,3680.00
2018-05-16T07:29:51.741Z,3656.00
2018-05-16T07:30:50.726Z,3484.00
2018-05-16T07:31:50.800Z,3420.00
2018-05-16T07:32:50.746Z,2928.00
2018-05-16T07:33:50.764Z,3012.00
2018-05-16T07:34:50.787Z,3312.00
2018-05-16T07:35:50.752Z,3772.00
2018-05-16T07:36:50.766Z,4136.00
2018-05-16T07:37:50.767Z,3988.00
2018-05-16T07:38:50.770Z,3548.00
2018-05-16T07:39:50.795Z,3588.00
2018-05-16T07:40:50.912Z,3748.00
2018-05-16T07:41:50.867Z,4152.00
2018-05-16T07:42:51.806Z,4120.00
2018-05-16T07:43:50.795Z,4216.00
2018-05-16T07:44:50.792Z,3804.00
2018-05-16T07:45:50.796Z,3696.00
2018-05-16T07:46:50.814Z,3668.00
2018-05-16T07:47:50.816Z,3912.00
2018-05-16T07:48:50.814Z,3964.00
2018-05-16T07:49:50.837Z,3988.00
2018-05-16T07:50:50.823Z,4084.00
2018-05-16T07:51:50.855Z,3788.00
2018-05-16T07:52:50.834Z,3884.00
2018-05-16T07:53:50.845Z,4096.00
2018-05-16T07:54:50.848Z,4012.00
2018-05-16T07:55:50.962Z,4372.00
2018-05-16T07:56:50.857Z,4476.00
2018-05-16T07:57:50.853Z,4816.00
2018-05-16T07:58:51.751Z,5760.00
2018-05-16T07:59:50.868Z,5904.00
2018-05-16T08:00:50.927Z,5776.00
2018-05-16T08:01:50.891Z,5296.00
2018-05-16T08:02:50.884Z,5324.00
2018-05-16T08:03:50.899Z,5880.00
2018-05-16T08:04:50.891Z,6644.00
2018-05-16T08:05:50.878Z,7744.00
2018-05-16T08:06:50.894Z,8704.00
2018-05-16T08:07:50.953Z,9508.00
2018-05-16T08:08:50.989Z,11132.00
2018-05-16T08:09:50.896Z,10524.00
2018-05-16T08:10:50.902Z,8884.00
2018-05-16T08:11:50.909Z,7168.00
2018-05-16T08:12:50.915Z,6100.00
2018-05-16T08:13:50.926Z,5892.00
2018-05-16T08:14:50.926Z,5956.00
2018-05-16T08:15:50.938Z,5668.00
2018-05-16T08:16:50.944Z,5508.00
2018-05-16T08:17:51.003Z,6144.00
2018-05-16T08:18:50.940Z,6308.00
2018-05-16T08:19:50.960Z,6696.00
2018-05-16T08:20:50.943Z,6984.00
2018-05-16T08:21:51.015Z,7252.00
2018-05-16T08:22:50.972Z,7152.00
2018-05-16T08:23:51.080Z,7468.00
2018-05-16T08:24:50.975Z,8140.00
2018-05-16T08:25:50.984Z,9432.00
2018-05-16T08:26:50.987Z,15104.00
2018-05-16T08:27:51.809Z,30496.00
2018-05-16T08:29:03.528Z,22624.00
2018-05-16T08:29:51.174Z,11020.00
2018-05-16T08:30:55.393Z,8944.00
2018-05-16T08:32:04.854Z,9952.00
2018-05-16T08:32:54.944Z,10440.00
2018-05-16T08:34:01.417Z,13132.00
2018-05-16T08:34:51.212Z,15448.00
2018-05-16T08:35:51.277Z,13788.00
2018-05-16T08:36:51.739Z,15876.00
2018-05-16T08:39:24.247Z,13924.00
2018-05-16T08:41:36.525Z,17216.00
2018-05-16T08:42:36.521Z,27104.00
2018-05-16T08:43:36.483Z,28224.00
2018-05-16T08:44:36.524Z,21440.00
2018-05-16T08:45:36.887Z,28576.00
2018-05-16T08:46:36.560Z,22368.00
2018-05-16T08:47:36.504Z,17376.00
2018-05-16T08:48:36.650Z,25408.00
2018-05-16T08:49:36.614Z,15268.00
2018-05-16T08:50:36.532Z,16768.00
2018-05-16T08:51:36.534Z,22688.00
2018-05-16T08:52:36.599Z,21152.00
2018-05-16T08:53:36.545Z,28224.00
2018-05-16T08:54:36.565Z,17664.00
2018-05-16T08:55:36.565Z,16232.00
2018-05-16T08:56:36.570Z,15768.00
2018-05-16T08:57:36.576Z,14184.00
2018-05-16T08:58:36.591Z,16704.00
2018-05-16T08:59:36.670Z,18912.00
2018-05-16T09:00:36.843Z,41536.00
2018-05-16T09:01:36.635Z,43424.00
2018-05-16T09:02:36.653Z,41312.00
2018-05-16T09:03:36.632Z,44384.00
2018-05-16T09:04:36.669Z,33024.00
2018-05-16T09:05:36.681Z,23392.00
2018-05-16T09:06:36.645Z,18720.00
2018-05-16T09:07:36.649Z,16896.00
2018-05-16T09:08:36.789Z,16640.00
2018-05-16T09:09:37.474Z,17504.00
2018-05-16T09:10:36.738Z,17760.00
2018-05-16T09:11:36.775Z,19296.00
2018-05-16T09:12:36.759Z,20256.00
2018-05-16T09:13:36.741Z,30304.00
2018-05-16T09:14:36.777Z,31072.00
2018-05-16T09:15:36.709Z,30624.00
2018-05-16T09:16:37.801Z,25408.00
2018-05-16T09:17:36.820Z,23232.00
2018-05-16T09:18:36.762Z,25888.00
2018-05-16T09:19:36.804Z,30304.00
2018-05-16T09:20:36.791Z,31040.00
2018-05-16T09:21:36.916Z,29600.00
2018-05-16T09:22:36.844Z,29312.00
2018-05-16T09:23:36.810Z,28736.00
2018-05-16T09:24:36.828Z,22112.00
2018-05-16T09:25:36.810Z,22304.00
2018-05-16T09:26:36.926Z,33312.00
2018-05-16T09:27:37.486Z,26080.00
2018-05-16T09:28:36.864Z,22144.00
2018-05-16T09:29:36.959Z,20000.00
2018-05-16T09:30:36.861Z,15928.00
2018-05-16T09:31:36.909Z,13024.00
2018-05-16T09:32:37.484Z,10148.00
2018-05-16T09:33:37.141Z,9052.00
2018-05-16T09:34:36.972Z,8964.00
2018-05-16T09:35:36.979Z,8260.00
2018-05-16T09:36:37.490Z,7892.00
2018-05-16T09:37:37.027Z,7436.00
2018-05-16T09:38:36.981Z,7232.00
2018-05-16T09:39:37.003Z,7560.00
2018-05-16T09:40:37.098Z,8160.00
2018-05-16T09:41:37.017Z,9244.00
2018-05-16T09:42:37.040Z,10308.00
2018-05-16T09:43:37.041Z,11480.00
2018-05-16T09:44:37.079Z,10236.00
2018-05-16T09:45:37.037Z,10108.00
2018-05-16T09:46:37.007Z,10896.00
2018-05-16T09:47:37.069Z,11920.00
2018-05-16T09:48:37.080Z,14344.00
2018-05-16T09:49:37.067Z,14300.00
2018-05-16T09:50:37.218Z,28064.00
2018-05-16T09:51:37.086Z,28832.00
2018-05-16T09:52:37.149Z,23488.00
2018-05-16T09:53:37.127Z,12284.00
2018-05-16T09:54:37.129Z,11572.00
2018-05-16T09:55:37.204Z,12276.00
2018-05-16T09:56:37.129Z,15876.00
2018-05-16T09:57:37.169Z,14028.00
2018-05-16T09:58:37.138Z,16576.00
2018-05-16T09:59:38.010Z,28352.00
2018-05-16T10:00:37.222Z,19552.00
2018-05-16T10:01:37.212Z,18784.00
2018-05-16T10:02:37.179Z,23744.00
2018-05-16T10:03:37.134Z,37248.00
2018-05-16T10:04:37.172Z,31904.00
2018-05-16T10:05:37.175Z,27040.00
2018-05-16T10:06:37.170Z,12656.00
2018-05-16T10:07:38.002Z,11572.00
2018-05-16T10:08:37.203Z,11408.00
2018-05-16T10:09:37.261Z,10508.00
2018-05-16T10:10:37.200Z,12752.00
2018-05-16T10:11:37.248Z,14464.00
2018-05-16T10:12:37.252Z,12132.00
2018-05-16T10:13:37.253Z,12384.00
2018-05-16T10:14:37.253Z,14468.00
2018-05-16T10:15:37.270Z,13352.00
2018-05-16T10:16:37.297Z,13364.00
2018-05-16T10:17:37.268Z,26496.00
2018-05-16T10:18:37.368Z,21824.00
2018-05-16T10:19:37.277Z,14480.00
2018-05-16T10:20:37.439Z,28960.00
2018-05-16T10:21:37.291Z,10528.00
2018-05-16T10:22:37.322Z,9712.00
2018-05-16T10:23:37.389Z,10564.00
2018-05-16T10:24:37.306Z,9108.00
2018-05-16T10:25:37.309Z,8272.00
2018-05-16T10:26:37.325Z,7944.00
2018-05-16T10:27:37.338Z,7284.00
2018-05-16T10:28:38.095Z,6680.00
2018-05-16T10:29:37.349Z,6784.00
2018-05-16T10:30:37.357Z,7084.00
2018-05-16T10:31:37.359Z,7728.00
2018-05-16T10:32:37.362Z,8360.00
2018-05-16T10:33:37.391Z,8664.00
2018-05-16T10:34:37.458Z,8944.00
2018-05-16T10:35:37.396Z,9480.00
2018-05-16T10:36:37.399Z,11012.00
2018-05-16T10:37:37.401Z,12740.00
2018-05-16T10:38:37.440Z,11660.00
2018-05-16T10:39:37.437Z,11436.00
2018-05-16T10:40:37.423Z,11404.00
2018-05-16T10:41:37.474Z,11532.00
2018-05-16T10:42:37.435Z,10908.00
2018-05-16T10:43:37.460Z,10980.00
2018-05-16T10:44:37.482Z,11740.00
2018-05-16T10:45:37.505Z,13100.00
2018-05-16T10:47:59.099Z,12376.00
2018-05-16T10:48:59.011Z,10820.00
2018-05-16T10:49:59.829Z,9752.00
2018-05-16T10:50:59.197Z,9708.00
2018-05-16T10:51:59.072Z,11032.00
2018-05-16T10:52:59.035Z,13644.00
2018-05-16T10:53:59.122Z,15704.00
2018-05-16T10:54:59.117Z,15152.00
2018-05-16T10:55:59.154Z,13760.00
2018-05-16T10:56:59.145Z,15076.00
2018-05-16T10:58:00.027Z,15480.00
2018-05-16T10:58:59.186Z,14396.00
2018-05-16T10:59:59.112Z,14220.00
2018-05-16T11:00:59.213Z,14408.00
2018-05-16T11:01:59.177Z,14812.00
2018-05-16T11:02:59.176Z,15008.00
2018-05-16T11:03:59.730Z,14924.00
2018-05-16T11:04:59.261Z,14868.00
2018-05-16T11:05:59.141Z,14252.00
2018-05-16T11:06:59.190Z,13348.00
2018-05-16T11:07:59.183Z,12172.00
2018-05-16T11:08:59.172Z,10452.00
2018-05-16T11:09:59.200Z,9568.00
2018-05-16T11:11:00.147Z,9152.00
2018-05-16T11:11:59.541Z,9024.00
2018-05-16T11:13:00.134Z,9112.00
2018-05-16T11:13:59.215Z,9000.00
2018-05-16T11:14:59.304Z,8852.00
2018-05-16T11:15:59.273Z,9232.00
2018-05-16T11:16:59.306Z,9388.00
2018-05-16T11:17:59.292Z,9492.00
2018-05-16T11:18:59.252Z,9528.00
2018-05-16T11:19:59.423Z,9776.00
2018-05-16T11:20:59.389Z,9780.00
2018-05-16T11:21:59.418Z,10060.00
2018-05-16T11:22:59.311Z,10556.00
2018-05-16T11:23:59.319Z,10736.00
2018-05-16T11:24:59.409Z,10812.00
2018-05-16T11:25:59.467Z,11304.00
2018-05-16T11:27:00.236Z,11704.00
2018-05-16T11:27:59.776Z,12128.00
2018-05-16T11:28:59.361Z,12416.00
2018-05-16T11:29:59.383Z,11972.00
2018-05-16T11:31:00.432Z,11440.00
2018-05-16T11:32:01.034Z,11396.00
2018-05-16T11:32:59.478Z,11508.00
2018-05-16T11:33:59.438Z,11376.00
2018-05-16T11:34:59.791Z,11280.00
2018-05-16T11:35:59.663Z,11128.00
2018-05-16T11:36:59.453Z,11328.00
2018-05-16T11:38:00.355Z,11356.00
2018-05-16T11:38:59.410Z,11268.00
2018-05-16T11:39:59.499Z,11288.00
2018-05-16T11:40:59.479Z,11316.00
2018-05-16T11:41:59.560Z,11088.00
2018-05-16T11:42:59.847Z,11064.00
2018-05-16T11:43:59.507Z,11268.00
2018-05-16T11:44:59.478Z,11572.00
2018-05-16T11:45:59.635Z,11712.00
2018-05-16T11:46:59.621Z,11948.00
2018-05-16T11:47:59.593Z,12164.00
2018-05-16T11:48:59.686Z,12272.00
2018-05-16T11:49:59.611Z,12068.00
2018-05-16T11:50:59.525Z,11528.00
2018-05-16T11:51:59.747Z,11136.00
2018-05-16T11:53:34.295Z,10732.00
2018-05-16T11:55:30.425Z,10424.00
2018-05-16T11:56:00.391Z,10452.00
2018-05-16T11:56:59.644Z,10648.00
2018-05-16T11:57:59.794Z,11088.00
2018-05-16T11:59:00.388Z,11288.00
2018-05-16T11:59:59.641Z,11276.00
2018-05-16T12:00:59.621Z,11220.00
2018-05-16T12:01:59.640Z,11160.00
2018-05-16T12:02:59.774Z,11044.00
2018-05-16T12:03:59.635Z,11072.00
2018-05-16T12:04:59.972Z,11192.00
2018-05-16T12:06:00.924Z,11152.00
2018-05-16T12:06:59.876Z,10860.00
2018-05-16T12:07:59.718Z,10708.00
2018-05-16T12:08:59.610Z,10616.00
2018-05-16T12:09:59.703Z,10572.00
2018-05-16T12:10:59.695Z,10640.00
2018-05-16T12:11:59.768Z,10816.00
2018-05-16T12:12:59.794Z,11028.00
2018-05-16T12:13:59.713Z,11152.00
2018-05-16T12:15:00.036Z,11236.00
2018-05-16T12:15:59.746Z,11364.00
2018-05-16T12:16:59.879Z,11588.00
2018-05-16T12:18:01.174Z,11892.00
2018-05-16T12:18:59.914Z,12180.00
2018-05-16T12:19:59.654Z,12276.00
2018-05-16T12:20:59.697Z,12240.00
2018-05-16T12:21:59.684Z,12280.00
2018-05-16T12:22:59.872Z,12208.00
2018-05-16T12:23:59.809Z,11832.00
2018-05-16T12:24:59.901Z,11844.00
2018-05-16T12:25:59.893Z,11948.00
2018-05-16T12:26:59.750Z,11680.00
2018-05-16T12:28:01.037Z,11692.00
2018-05-16T12:29:02.896Z,11716.00
2018-05-16T12:30:00.684Z,11376.00
2018-05-16T12:31:03.824Z,11100.00
2018-05-16T12:31:59.934Z,10744.00
2018-05-16T12:33:00.412Z,10144.00
2018-05-16T12:34:00.416Z,9572.00
2018-05-16T12:35:00.184Z,9260.00
2018-05-16T12:35:59.943Z,8900.00